createdAt,value
2023-04-13T00:02:13.486Z,6.95
2023-04-13T00:04:50.888Z,6.96
2023-04-13T00:07:28.477Z,6.95
2023-04-13T00:10:04.001Z,6.96
2023-04-13T00:12:43.092Z,6.93
2023-04-13T00:15:17.751Z,6.93
2023-04-13T00:17:51.488Z,6.92
2023-04-13T00:20:27.090Z,6.92
2023-04-13T00:22:59.224Z,6.91
2023-04-13T00:25:31.145Z,6.91
2023-04-13T00:28:07.584Z,6.90
2023-04-13T00:30:41.837Z,6.89
2023-04-13T00:33:17.318Z,6.89
2023-04-13T00:35:51.792Z,6.90
2023-04-13T00:38:28.416Z,6.89
2023-04-13T00:41:13.822Z,6.86
2023-04-13T00:43:46.855Z,6.86
2023-04-13T00:46:29.742Z,6.84
2023-04-13T00:49:03.355Z,6.84
2023-04-13T00:51:39.440Z,6.81
2023-04-13T00:54:14.349Z,6.77
2023-04-13T00:56:49.594Z,6.77
2023-04-13T00:59:28.024Z,6.75
2023-04-13T01:02:04.585Z,6.75
2023-04-13T01:04:39.536Z,6.74
2023-04-13T01:07:23.147Z,6.73
2023-04-13T01:10:05.217Z,6.70
2023-04-13T01:12:49.498Z,6.67
2023-04-13T01:15:36.413Z,6.66
2023-04-13T01:18:13.447Z,6.66
2023-04-13T01:20:53.574Z,6.65
2023-04-13T01:23:38.413Z,6.64
2023-04-13T01:26:13.842Z,6.62
2023-04-13T01:28:50.111Z,6.61
2023-04-13T01:31:24.637Z,6.60
2023-04-13T01:34:02.528Z,6.61
2023-04-13T01:36:36.569Z,6.58
2023-04-13T01:39:12.242Z,6.57
2023-04-13T01:41:46.375Z,6.58
2023-04-13T01:44:23.444Z,6.57
2023-04-13T01:47:14.504Z,6.54
2023-04-13T01:50:30.645Z,6.46
2023-04-13T01:53:17.106Z,6.45
2023-04-13T01:55:53.255Z,6.44
2023-04-13T01:58:33.756Z,6.44
2023-04-13T02:01:16.692Z,6.46
2023-04-13T02:03:49.862Z,6.44
2023-04-13T02:06:25.761Z,6.45
2023-04-13T02:09:11.590Z,6.44
2023-04-13T02:11:47.049Z,6.43
2023-04-13T02:14:21.299Z,6.45
2023-04-13T02:16:59.631Z,6.46
2023-04-13T02:19:32.761Z,6.45
2023-04-13T02:22:09.389Z,6.44
2023-04-13T02:24:46.189Z,6.43
2023-04-13T02:27:17.753Z,6.41
2023-04-13T02:29:51.907Z,6.41
2023-04-13T02:32:31.426Z,6.40
2023-04-13T02:35:12.000Z,6.41
2023-04-13T02:37:51.551Z,6.40
2023-04-13T02:40:28.154Z,6.35
2023-04-13T02:43:02.626Z,6.31
2023-04-13T02:45:46.260Z,6.29
2023-04-13T02:48:23.237Z,6.26
2023-04-13T02:51:04.318Z,6.22
2023-04-13T02:53:40.647Z,6.22
2023-04-13T02:56:16.925Z,6.22
2023-04-13T02:58:54.560Z,6.20
2023-04-13T03:01:31.960Z,6.22
2023-04-13T03:04:07.628Z,6.24
2023-04-13T03:06:44.290Z,6.25
2023-04-13T03:09:20.310Z,6.24
2023-04-13T03:11:56.945Z,6.24
2023-04-13T03:14:34.457Z,6.23
2023-04-13T03:17:19.216Z,6.20
2023-04-13T03:19:52.251Z,6.15
2023-04-13T03:22:30.637Z,6.14
2023-04-13T03:25:15.567Z,6.12
2023-04-13T03:27:50.128Z,6.11
2023-04-13T03:30:27.842Z,6.11
2023-04-13T03:33:02.038Z,6.10
2023-04-13T03:35:45.348Z,6.10
2023-04-13T03:38:24.253Z,6.12
2023-04-13T03:41:04.562Z,6.11
2023-04-13T03:43:41.165Z,6.09
2023-04-13T03:46:19.234Z,6.09
2023-04-13T03:48:55.300Z,6.06
2023-04-13T03:51:34.558Z,6.06
2023-04-13T03:54:07.504Z,6.05
2023-04-13T03:56:42.999Z,6.03
2023-04-13T03:59:16.170Z,6.04
2023-04-13T04:01:52.748Z,6.03
2023-04-13T04:04:25.743Z,6.01
2023-04-13T04:07:00.637Z,5.99
2023-04-13T04:09:33.875Z,5.98
2023-04-13T04:12:14.709Z,5.99
2023-04-13T04:14:50.613Z,5.97
2023-04-13T04:17:26.061Z,5.96
2023-04-13T04:20:01.761Z,5.94
2023-04-13T04:22:39.246Z,5.95
2023-04-13T04:25:23.836Z,5.96
2023-04-13T04:28:17.443Z,5.94
2023-04-13T04:31:11.607Z,5.91
2023-04-13T04:33:53.131Z,5.90
2023-04-13T04:36:28.993Z,5.91
2023-04-13T04:39:09.438Z,5.90
2023-04-13T04:41:54.794Z,5.88
2023-04-13T04:44:30.878Z,5.87
2023-04-13T04:47:07.764Z,5.87
2023-04-13T04:49:47.653Z,5.87
2023-04-13T04:52:21.408Z,5.87
2023-04-13T04:55:00.223Z,5.86
2023-04-13T04:57:39.565Z,5.89
2023-04-13T05:00:21.823Z,5.90
2023-04-13T05:03:07.605Z,5.89
2023-04-13T05:05:40.849Z,5.89
2023-04-13T05:08:24.469Z,5.90
2023-04-13T05:11:00.900Z,5.92
2023-04-13T05:13:43.545Z,5.95
2023-04-13T05:16:25.069Z,5.98
2023-04-13T05:18:59.820Z,6.01
2023-04-13T05:21:52.034Z,6.05
2023-04-13T05:24:35.507Z,6.08
2023-04-13T05:27:11.272Z,6.12
2023-04-13T05:29:42.682Z,6.18
2023-04-13T05:32:16.222Z,6.23
2023-04-13T05:35:01.963Z,6.29
2023-04-13T05:37:40.856Z,6.32
2023-04-13T05:40:19.640Z,6.34
2023-04-13T05:42:57.195Z,6.38
2023-04-13T05:45:34.718Z,6.43
2023-04-13T05:48:16.960Z,6.49
2023-04-13T05:50:49.506Z,6.54
2023-04-13T05:53:26.513Z,6.62
2023-04-13T05:56:00.196Z,6.70
2023-04-13T05:58:43.247Z,6.76
2023-04-13T06:01:33.361Z,6.83
2023-04-13T06:04:14.735Z,6.92
2023-04-13T06:06:50.392Z,7.03
2023-04-13T06:09:24.305Z,7.13
2023-04-13T06:11:58.819Z,7.24
2023-04-13T06:14:31.957Z,7.32
2023-04-13T06:17:07.534Z,7.43
2023-04-13T06:19:41.570Z,7.54
2023-04-13T06:22:18.628Z,7.66
2023-04-13T06:24:53.225Z,7.76
2023-04-13T06:27:27.280Z,7.87
2023-04-13T06:30:12.689Z,7.99
2023-04-13T06:32:53.443Z,8.11
2023-04-13T06:35:32.357Z,8.23
2023-04-13T06:38:11.211Z,8.35
2023-04-13T06:40:54.502Z,8.47
2023-04-13T06:43:35.383Z,8.59
2023-04-13T06:46:38.728Z,8.71
2023-04-13T06:49:14.380Z,8.83
2023-04-13T06:51:47.581Z,8.95
2023-04-13T06:54:21.670Z,9.08
2023-04-13T06:56:57.842Z,9.21
2023-04-13T06:59:33.311Z,9.33
2023-04-13T07:02:05.665Z,9.45
2023-04-13T07:04:38.453Z,9.56
2023-04-13T07:07:26.516Z,9.67
2023-04-13T07:10:01.696Z,9.78
2023-04-13T07:12:38.724Z,9.89
2023-04-13T07:15:15.042Z,10.01
2023-04-13T07:17:56.558Z,10.13
2023-04-13T07:20:27.005Z,10.26
2023-04-13T07:23:00.033Z,10.39
2023-04-13T07:25:36.786Z,10.52
2023-04-13T07:28:15.207Z,10.65
2023-04-13T07:30:49.892Z,10.76
2023-04-13T07:33:22.274Z,10.88
2023-04-13T07:35:55.724Z,10.99
2023-04-13T07:38:32.391Z,11.10
2023-04-13T07:41:05.825Z,11.21
2023-04-13T07:43:40.911Z,11.32
2023-04-13T07:46:18.850Z,11.42
2023-04-13T07:48:54.339Z,11.53
2023-04-13T07:51:29.913Z,11.62
2023-04-13T07:54:04.534Z,11.72
2023-04-13T07:56:40.543Z,11.82
2023-04-13T07:59:14.090Z,11.91
2023-04-13T08:02:08.700Z,11.97
2023-04-13T08:04:44.380Z,12.05
2023-04-13T08:07:21.600Z,12.15
2023-04-13T08:09:55.926Z,12.22
2023-04-13T08:12:30.771Z,12.26
2023-04-13T08:15:11.831Z,12.28
2023-04-13T08:17:43.822Z,12.31
2023-04-13T08:20:16.835Z,12.34
2023-04-13T08:22:52.215Z,12.36
2023-04-13T08:25:31.275Z,12.39
2023-04-13T08:28:07.823Z,12.40
2023-04-13T08:30:42.790Z,12.45
2023-04-13T08:33:15.686Z,12.50
2023-04-13T08:35:46.883Z,12.58
2023-04-13T08:38:24.455Z,12.68
2023-04-13T08:40:56.038Z,12.77
2023-04-13T08:43:32.775Z,12.86
2023-04-13T08:46:07.760Z,12.92
2023-04-13T08:48:59.110Z,12.98
2023-04-13T08:51:42.848Z,13.01
2023-04-13T08:54:17.815Z,13.07
2023-04-13T08:56:54.026Z,13.09
2023-04-13T08:59:31.763Z,13.14
2023-04-13T09:02:10.153Z,13.17
2023-04-13T09:04:53.724Z,13.20
2023-04-13T09:07:36.122Z,13.25
2023-04-13T09:10:19.670Z,13.30
2023-04-13T09:12:52.884Z,13.38
2023-04-13T09:15:28.237Z,13.43
2023-04-13T09:18:12.261Z,13.45
2023-04-13T09:21:00.394Z,13.56
2023-04-13T09:23:34.945Z,13.63
2023-04-13T09:26:12.405Z,13.65
2023-04-13T09:28:59.596Z,13.69
2023-04-13T09:31:35.268Z,13.83
2023-04-13T09:34:08.029Z,13.97
2023-04-13T09:36:54.314Z,14.10
2023-04-13T09:39:30.824Z,14.23
2023-04-13T09:42:18.617Z,14.32
2023-04-13T09:44:58.295Z,14.45
2023-04-13T09:47:48.908Z,14.55
2023-04-13T09:50:23.708Z,14.66
2023-04-13T09:53:07.341Z,14.73
2023-04-13T09:55:45.428Z,14.73
2023-04-13T09:58:21.570Z,14.74
2023-04-13T10:00:57.234Z,14.75
2023-04-13T10:03:31.827Z,14.70
2023-04-13T10:06:07.906Z,14.72
2023-04-13T10:08:45.930Z,14.75
2023-04-13T10:11:23.208Z,14.84
2023-04-13T10:14:08.698Z,14.90
2023-04-13T10:17:22.053Z,14.79
2023-04-13T10:20:00.831Z,14.69
2023-04-13T10:22:45.332Z,14.74
2023-04-13T10:25:32.281Z,14.81
2023-04-13T10:28:06.586Z,14.90
2023-04-13T10:30:52.215Z,14.93
2023-04-13T10:33:30.858Z,14.95
2023-04-13T10:36:04.158Z,15.01
2023-04-13T10:38:46.092Z,15.08
2023-04-13T10:41:26.507Z,15.16
2023-04-13T10:44:07.355Z,15.18
2023-04-13T10:46:41.082Z,15.23
2023-04-13T10:49:13.124Z,15.25
2023-04-13T10:51:47.256Z,15.33
2023-04-13T10:54:18.718Z,15.42
2023-04-13T10:56:59.893Z,15.55
2023-04-13T10:59:58.143Z,15.62
2023-04-13T11:02:35.558Z,15.59
2023-04-13T11:05:10.236Z,15.57
2023-04-13T11:07:55.104Z,15.63
2023-04-13T11:10:29.419Z,15.74
2023-04-13T11:13:01.733Z,15.85
2023-04-13T11:15:36.725Z,15.94
2023-04-13T11:18:13.173Z,16.01
2023-04-13T11:20:55.133Z,16.08
2023-04-13T11:23:28.176Z,16.15
2023-04-13T11:26:00.771Z,16.24
2023-04-13T11:28:42.355Z,16.31
2023-04-13T11:31:15.423Z,16.41
2023-04-13T11:33:53.333Z,16.51
2023-04-13T11:36:29.902Z,16.66
2023-04-13T11:39:06.714Z,16.75
2023-04-13T11:41:42.963Z,16.81
2023-04-13T11:44:15.931Z,16.84
2023-04-13T11:46:46.901Z,16.80
2023-04-13T11:49:20.789Z,16.75
2023-04-13T11:51:51.889Z,16.72
2023-04-13T11:54:25.222Z,16.68
2023-04-13T11:56:57.103Z,16.64
2023-04-13T11:59:31.320Z,16.58
2023-04-13T12:02:19.662Z,16.53
2023-04-13T12:04:58.503Z,16.46
2023-04-13T12:07:33.966Z,16.45
2023-04-13T12:12:51.792Z,16.38
2023-04-13T12:18:15.306Z,16.30
2023-04-13T12:20:49.646Z,16.21
2023-04-13T12:23:29.255Z,16.21
2023-04-13T12:26:31.966Z,16.24
2023-04-13T12:29:05.166Z,16.29
2023-04-13T12:31:39.582Z,16.31
2023-04-13T12:34:13.676Z,16.27
2023-04-13T12:36:46.132Z,16.23
2023-04-13T12:39:20.465Z,16.20
2023-04-13T12:41:52.412Z,16.24
2023-04-13T12:44:31.203Z,16.35
2023-04-13T12:47:07.409Z,16.45
2023-04-13T12:49:40.412Z,16.48
2023-04-13T12:52:12.177Z,16.47
2023-04-13T12:54:45.884Z,16.40
2023-04-13T12:57:22.209Z,16.37
2023-04-13T12:59:54.086Z,16.40
2023-04-13T13:02:32.560Z,16.42
2023-04-13T13:05:05.397Z,16.44
2023-04-13T13:07:38.281Z,16.43
2023-04-13T13:10:29.110Z,16.41
2023-04-13T13:13:03.984Z,16.33
2023-04-13T13:15:46.399Z,16.33
2023-04-13T13:18:21.048Z,16.32
2023-04-13T13:20:56.939Z,16.30
2023-04-13T13:23:47.406Z,16.26
2023-04-13T13:29:11.481Z,15.96
2023-04-13T13:31:43.382Z,15.92
2023-04-13T13:34:18.564Z,15.97
2023-04-13T13:36:52.045Z,16.02
2023-04-13T13:39:25.256Z,16.07
2023-04-13T13:41:59.629Z,16.06
2023-04-13T13:44:35.136Z,16.03
2023-04-13T13:47:09.573Z,16.03
2023-04-13T13:49:44.982Z,16.02
2023-04-13T13:52:33.967Z,16.02
2023-04-13T13:55:12.740Z,16.03
2023-04-13T13:57:51.522Z,16.07
2023-04-13T14:00:24.032Z,16.08
2023-04-13T14:03:04.814Z,16.11
2023-04-13T14:06:04.759Z,16.08
2023-04-13T14:08:45.069Z,16.02
2023-04-13T14:11:18.869Z,16.04
2023-04-13T14:13:53.236Z,16.06
2023-04-13T14:16:26.571Z,16.10
2023-04-13T14:18:59.035Z,16.12
2023-04-13T14:21:33.750Z,16.13
2023-04-13T14:24:07.649Z,16.14
2023-04-13T14:26:42.557Z,16.16
2023-04-13T14:29:14.956Z,16.10
2023-04-13T14:31:47.763Z,16.07
2023-04-13T14:34:18.605Z,16.04
2023-04-13T14:36:54.334Z,16.00
2023-04-13T14:39:27.608Z,15.95
2023-04-13T14:41:59.039Z,15.89
2023-04-13T14:44:29.970Z,15.88
2023-04-13T14:47:09.228Z,15.92
2023-04-13T14:49:44.847Z,15.96
2023-04-13T14:52:16.359Z,15.99
2023-04-13T14:54:48.945Z,15.99
2023-04-13T14:57:23.914Z,15.97
2023-04-13T14:59:58.502Z,15.97
2023-04-13T15:02:32.844Z,15.99
2023-04-13T15:05:12.603Z,16.02
2023-04-13T15:07:51.550Z,16.01
2023-04-13T15:10:28.267Z,16.00
2023-04-13T15:13:06.154Z,16.00
2023-04-13T15:15:39.326Z,16.00
2023-04-13T15:18:21.163Z,15.99
2023-04-13T15:20:55.526Z,15.96
2023-04-13T15:23:27.175Z,15.92
2023-04-13T15:26:01.824Z,15.92
2023-04-13T15:28:38.834Z,15.92
2023-04-13T15:31:09.823Z,15.92
2023-04-13T15:33:43.570Z,15.94
2023-04-13T15:36:19.638Z,15.98
2023-04-13T15:38:53.987Z,16.04
2023-04-13T15:41:27.426Z,16.11
2023-04-13T15:44:03.703Z,16.16
2023-04-13T15:46:36.163Z,16.20
2023-04-13T15:49:11.013Z,16.23
2023-04-13T15:51:43.098Z,16.23
2023-04-13T15:54:16.584Z,16.21
2023-04-13T15:56:49.261Z,16.21
2023-04-13T15:59:21.659Z,16.25
2023-04-13T16:01:53.264Z,16.27
2023-04-13T16:04:27.702Z,16.30
2023-04-13T16:07:13.579Z,16.29
2023-04-13T16:09:49.888Z,16.26
2023-04-13T16:12:21.183Z,16.27
2023-04-13T16:14:56.332Z,16.23
2023-04-13T16:17:32.942Z,16.15
2023-04-13T16:20:20.161Z,16.06
2023-04-13T16:22:59.240Z,15.99
2023-04-13T16:25:32.054Z,15.81
2023-04-13T16:28:12.484Z,15.64
2023-04-13T16:30:46.077Z,15.41
2023-04-13T16:33:18.418Z,15.23
2023-04-13T16:35:53.023Z,15.11
2023-04-13T16:38:24.127Z,15.00
2023-04-13T16:40:57.041Z,14.93
2023-04-13T16:43:30.703Z,14.97
2023-04-13T16:46:02.951Z,14.98
2023-04-13T16:48:37.094Z,14.85
2023-04-13T16:51:08.862Z,14.73
2023-04-13T16:53:44.208Z,14.70
2023-04-13T16:56:17.172Z,14.64
2023-04-13T16:58:50.202Z,14.57
2023-04-13T17:01:26.609Z,14.56
2023-04-13T17:04:01.140Z,14.52
2023-04-13T17:06:35.251Z,14.45
2023-04-13T17:09:06.398Z,14.39
2023-04-13T17:11:45.534Z,14.33
2023-04-13T17:14:25.430Z,14.21
2023-04-13T17:16:58.008Z,14.09
2023-04-13T17:19:29.784Z,14.02
2023-04-13T17:22:02.857Z,13.99
2023-04-13T17:24:37.434Z,13.96
2023-04-13T17:27:10.975Z,13.91
2023-04-13T17:29:55.336Z,13.79
2023-04-13T17:32:27.713Z,13.74
2023-04-13T17:35:02.936Z,13.68
2023-04-13T17:37:54.690Z,13.59
2023-04-13T17:40:27.983Z,13.50
2023-04-13T17:43:01.403Z,13.38
2023-04-13T17:45:38.503Z,13.27
2023-04-13T17:48:17.666Z,13.19
2023-04-13T17:50:51.029Z,13.09
2023-04-13T17:53:24.794Z,13.04
2023-04-13T17:55:57.333Z,13.00
2023-04-13T17:58:28.936Z,12.95
2023-04-13T18:01:08.526Z,12.92
2023-04-13T18:03:39.827Z,12.89
2023-04-13T18:06:14.959Z,12.84
2023-04-13T18:08:49.262Z,12.77
2023-04-13T18:11:21.706Z,12.69
2023-04-13T18:13:54.966Z,12.63
2023-04-13T18:16:32.108Z,12.58
2023-04-13T18:19:06.280Z,12.51
2023-04-13T18:21:41.335Z,12.42
2023-04-13T18:24:17.191Z,12.40
2023-04-13T18:26:54.766Z,12.29
2023-04-13T18:29:31.423Z,12.23
2023-04-13T18:32:03.355Z,12.22
2023-04-13T18:34:36.480Z,12.18
2023-04-13T18:37:14.075Z,12.18
2023-04-13T18:39:47.174Z,12.14
2023-04-13T18:42:28.573Z,12.11
2023-04-13T18:45:01.452Z,12.14
2023-04-13T18:47:35.965Z,12.10
2023-04-13T18:50:11.910Z,12.02
2023-04-13T18:52:45.551Z,11.97
2023-04-13T18:55:19.529Z,11.99
2023-04-13T18:57:55.519Z,11.98
2023-04-13T19:00:26.149Z,11.98
2023-04-13T19:03:01.745Z,11.96
2023-04-13T19:05:37.102Z,11.92
2023-04-13T19:08:13.503Z,11.93
2023-04-13T19:10:47.039Z,11.96
2023-04-13T19:13:18.874Z,11.98
2023-04-13T19:15:52.008Z,11.96
2023-04-13T19:18:22.721Z,11.98
2023-04-13T19:20:57.320Z,12.01
2023-04-13T19:23:31.686Z,12.02
2023-04-13T19:26:04.315Z,12.01
2023-04-13T19:28:35.979Z,12.01
2023-04-13T19:31:12.534Z,12.01
2023-04-13T19:33:48.381Z,12.02
2023-04-13T19:36:25.866Z,12.02
2023-04-13T19:39:05.470Z,12.03
2023-04-13T19:41:41.397Z,12.04
2023-04-13T19:44:22.676Z,12.03
2023-04-13T19:46:57.420Z,12.01
2023-04-13T19:49:35.626Z,12.01
2023-04-13T19:52:16.063Z,12.02
2023-04-13T19:54:49.434Z,12.02
2023-04-13T19:57:25.016Z,11.98
2023-04-13T20:00:00.562Z,11.99
2023-04-13T20:02:46.985Z,11.94
2023-04-13T20:05:24.341Z,11.86
2023-04-13T20:07:56.231Z,11.83
2023-04-13T20:10:31.193Z,11.85
2023-04-13T20:13:07.409Z,11.87
2023-04-13T20:15:40.204Z,11.88
2023-04-13T20:18:12.916Z,11.86
2023-04-13T20:20:48.541Z,11.86
2023-04-13T20:23:22.595Z,11.86
2023-04-13T20:25:57.596Z,11.85
2023-04-13T20:28:28.918Z,11.84
2023-04-13T20:31:01.771Z,11.83
2023-04-13T20:33:38.316Z,11.82
2023-04-13T20:36:10.538Z,11.80
2023-04-13T20:38:44.977Z,11.79
2023-04-13T20:41:15.280Z,11.77
2023-04-13T20:43:50.060Z,11.75
2023-04-13T20:46:25.398Z,11.72
2023-04-13T20:49:00.308Z,11.70
2023-04-13T20:51:40.079Z,11.65
2023-04-13T20:54:13.145Z,11.63
2023-04-13T20:56:46.972Z,11.60
2023-04-13T20:59:23.025Z,11.59
2023-04-13T21:01:54.378Z,11.57
2023-04-13T21:04:35.610Z,11.53
2023-04-13T21:07:11.801Z,11.46
2023-04-13T21:09:45.245Z,11.43
2023-04-13T21:12:22.399Z,11.41
2023-04-13T21:15:05.561Z,11.41
2023-04-13T21:17:39.100Z,11.42
2023-04-13T21:20:27.785Z,11.40
2023-04-13T21:22:57.654Z,11.40
2023-04-13T21:25:30.813Z,11.40
2023-04-13T21:28:02.911Z,11.40
2023-04-13T21:30:35.799Z,11.35
2023-04-13T21:33:09.223Z,11.29
2023-04-13T21:35:42.135Z,11.22
2023-04-13T21:38:18.046Z,11.22
2023-04-13T21:40:53.910Z,11.22
2023-04-13T21:43:27.823Z,11.24
2023-04-13T21:46:03.471Z,11.21
2023-04-13T21:48:41.963Z,11.17
2023-04-13T21:51:14.996Z,11.19
2023-04-13T21:53:47.126Z,11.18
2023-04-13T21:56:22.469Z,11.19
2023-04-13T21:59:00.729Z,11.19
2023-04-13T22:01:31.111Z,11.17
2023-04-13T22:04:11.223Z,11.15
2023-04-13T22:06:48.061Z,11.15
2023-04-13T22:09:22.253Z,11.13
2023-04-13T22:11:53.805Z,11.07
2023-04-13T22:14:29.096Z,11.07
2023-04-13T22:17:04.487Z,11.07
2023-04-13T22:19:37.498Z,11.06
2023-04-13T22:22:14.092Z,11.06
2023-04-13T22:24:47.470Z,11.04
2023-04-13T22:27:22.982Z,11.02
2023-04-13T22:29:57.674Z,11.05
2023-04-13T22:32:31.985Z,11.06
2023-04-13T22:35:05.536Z,11.07
2023-04-13T22:37:47.511Z,11.06
2023-04-13T22:40:22.449Z,11.04
2023-04-13T22:42:54.802Z,11.04
2023-04-13T22:45:29.785Z,11.04
2023-04-13T22:48:08.026Z,11.05
2023-04-13T22:50:42.721Z,11.03
2023-04-13T22:53:16.176Z,11.03
2023-04-13T22:55:56.592Z,10.98
2023-04-13T22:58:31.516Z,10.95
2023-04-13T23:01:06.348Z,10.90
2023-04-13T23:03:41.333Z,10.88
2023-04-13T23:06:12.554Z,10.87
2023-04-13T23:08:48.351Z,10.86
2023-04-13T23:11:20.970Z,10.82
2023-04-13T23:13:57.312Z,10.80
2023-04-13T23:16:30.572Z,10.74
2023-04-13T23:19:03.596Z,10.73
2023-04-13T23:21:36.319Z,10.72
2023-04-13T23:24:12.471Z,10.71
2023-04-13T23:26:45.271Z,10.64
2023-04-13T23:29:21.315Z,10.61
2023-04-13T23:31:55.106Z,10.63
2023-04-13T23:34:28.008Z,10.64
2023-04-13T23:37:00.750Z,10.64
2023-04-13T23:39:33.387Z,10.63
2023-04-13T23:42:06.660Z,10.62
2023-04-13T23:44:44.094Z,10.62
2023-04-13T23:47:17.145Z,10.58
2023-04-13T23:49:54.314Z,10.56
2023-04-13T23:52:31.247Z,10.58
2023-04-13T23:55:05.568Z,10.49
2023-04-13T23:57:38.842Z,10.46
